sensor_id;sensor_type;location;lat;lon;timestamp;temperature;humidity
27376;DHT22;14844;51.302;6.354;2023-10-19T01:33:41;11.80;99.90
27376;DHT22;14844;51.302;6.354;2023-10-19T01:36:27;11.90;99.90
27376;DHT22;14844;51.302;6.354;2023-10-19T01:42:24;11.90;99.90
27376;DHT22;14844;51.302;6.354;2023-10-19T01:44:54;12.00;99.90
27376;DHT22;14844;51.302;6.354;2023-10-19T01:47:25;12.00;99.90
27376;DHT22;14844;51.302;6.354;2023-10-19T01:53:19;12.10;99.90
27376;DHT22;14844;51.302;6.354;2023-10-19T01:56:17;12.10;99.90
27376;DHT22;14844;51.302;6.354;2023-10-19T01:59:17;12.20;99.90
27376;DHT22;14844;51.302;6.354;2023-10-19T02:06:24;12.20;99.90
27376;DHT22;14844;51.302;6.354;2023-10-19T02:09:28;12.20;99.90
27376;DHT22;14844;51.302;6.354;2023-10-19T02:19:20;12.30;99.90
27376;DHT22;14844;51.302;6.354;2023-10-19T02:22:58;12.30;99.90
27376;DHT22;14844;51.302;6.354;2023-10-19T02:33:03;12.30;99.90
27376;DHT22;14844;51.302;6.354;2023-10-19T02:39:15;12.40;99.90
27376;DHT22;14844;51.302;6.354;2023-10-19T02:42:37;12.40;99.90
27376;DHT22;14844;51.302;6.354;2023-10-19T02:46:04;12.50;99.90
27376;DHT22;14844;51.302;6.354;2023-10-19T02:56:13;12.70;99.90
27376;DHT22;14844;51.302;6.354;2023-10-19T03:02:44;12.90;99.90
27376;DHT22;14844;51.302;6.354;2023-10-19T03:06:38;12.90;99.90
27376;DHT22;14844;51.302;6.354;2023-10-19T03:10:06;13.00;99.90
27376;DHT22;14844;51.302;6.354;2023-10-19T03:23:55;13.20;99.90
27376;DHT22;14844;51.302;6.354;2023-10-19T03:36:30;13.10;99.90
27376;DHT22;14844;51.302;6.354;2023-10-19T03:39:12;13.10;99.90
27376;DHT22;14844;51.302;6.354;2023-10-19T03:42:02;13.10;99.90
27376;DHT22;14844;51.302;6.354;2023-10-19T03:53:51;13.00;99.90
27376;DHT22;14844;51.302;6.354;2023-10-19T03:56:30;12.90;99.90
27376;DHT22;14844;51.302;6.354;2023-10-19T04:36:52;13.00;99.90
27376;DHT22;14844;51.302;6.354;2023-10-19T05:50:09;12.30;99.90
27376;DHT22;14844;51.302;6.354;2023-10-19T05:53:38;12.40;99.90
27376;DHT22;14844;51.302;6.354;2023-10-19T05:56:47;12.40;99.90
27376;DHT22;14844;51.302;6.354;2023-10-19T05:59:16;12.40;99.90
27376;DHT22;14844;51.302;6.354;2023-10-19T06:01:55;12.40;99.90
27376;DHT22;14844;51.302;6.354;2023-10-19T06:04:21;12.40;99.90
27376;DHT22;14844;51.302;6.354;2023-10-19T06:06:47;12.50;99.90
27376;DHT22;14844;51.302;6.354;2023-10-19T06:09:13;12.50;99.90
27376;DHT22;14844;51.302;6.354;2023-10-19T06:11:52;12.50;99.90
27376;DHT22;14844;51.302;6.354;2023-10-19T06:14:19;12.50;99.90
27376;DHT22;14844;51.302;6.354;2023-10-19T06:16:47;12.50;99.90
27376;DHT22;14844;51.302;6.354;2023-10-19T06:19:13;12.50;99.90
27376;DHT22;14844;51.302;6.354;2023-10-19T06:21:39;12.60;99.90
27376;DHT22;14844;51.302;6.354;2023-10-19T06:24:05;12.70;99.90
27376;DHT22;14844;51.302;6.354;2023-10-19T06:26:31;12.70;99.90
27376;DHT22;14844;51.302;6.354;2023-10-19T06:28:57;12.70;99.90
27376;DHT22;14844;51.302;6.354;2023-10-19T06:31:29;12.80;99.90
27376;DHT22;14844;51.302;6.354;2023-10-19T06:33:55;12.80;99.90
27376;DHT22;14844;51.302;6.354;2023-10-19T06:36:22;12.80;99.90
27376;DHT22;14844;51.302;6.354;2023-10-19T06:38:48;12.90;99.90
27376;DHT22;14844;51.302;6.354;2023-10-19T06:41:16;12.90;99.90
27376;DHT22;14844;51.302;6.354;2023-10-19T06:43:44;13.00;99.90
27376;DHT22;14844;51.302;6.354;2023-10-19T06:46:09;13.00;99.90
27376;DHT22;14844;51.302;6.354;2023-10-19T06:48:37;13.10;99.90
27376;DHT22;14844;51.302;6.354;2023-10-19T06:51:02;13.10;99.90
27376;DHT22;14844;51.302;6.354;2023-10-19T06:53:28;13.10;99.90
27376;DHT22;14844;51.302;6.354;2023-10-19T06:56:09;13.20;99.90
27376;DHT22;14844;51.302;6.354;2023-10-19T06:58:58;13.20;99.90
27376;DHT22;14844;51.302;6.354;2023-10-19T07:12:36;13.40;99.90
27376;DHT22;14844;51.302;6.354;2023-10-19T07:19:06;13.60;99.90
27376;DHT22;14844;51.302;6.354;2023-10-19T07:22:11;13.60;99.90
27376;DHT22;14844;51.302;6.354;2023-10-19T07:24:39;13.70;99.90
27376;DHT22;14844;51.302;6.354;2023-10-19T07:27:06;13.70;99.90
27376;DHT22;14844;51.302;6.354;2023-10-19T07:29:33;13.70;99.90
27376;DHT22;14844;51.302;6.354;2023-10-19T07:32:04;13.80;99.90
27376;DHT22;14844;51.302;6.354;2023-10-19T07:34:33;13.90;99.90
27376;DHT22;14844;51.302;6.354;2023-10-19T07:37:00;14.00;99.90
27376;DHT22;14844;51.302;6.354;2023-10-19T07:39:26;14.00;99.90
27376;DHT22;14844;51.302;6.354;2023-10-19T07:41:55;14.10;99.90
27376;DHT22;14844;51.302;6.354;2023-10-19T07:44:22;14.20;99.90
27376;DHT22;14844;51.302;6.354;2023-10-19T07:46:48;14.30;99.90
27376;DHT22;14844;51.302;6.354;2023-10-19T07:49:17;14.40;99.90
27376;DHT22;14844;51.302;6.354;2023-10-19T07:51:55;14.50;99.90
27376;DHT22;14844;51.302;6.354;2023-10-19T07:54:34;14.80;99.90
27376;DHT22;14844;51.302;6.354;2023-10-19T07:57:01;15.00;99.90
27376;DHT22;14844;51.302;6.354;2023-10-19T07:59:33;15.20;99.90
27376;DHT22;14844;51.302;6.354;2023-10-19T08:02:02;15.40;99.90
27376;DHT22;14844;51.302;6.354;2023-10-19T08:04:29;15.50;99.90
27376;DHT22;14844;51.302;6.354;2023-10-19T08:06:55;15.60;99.90
27376;DHT22;14844;51.302;6.354;2023-10-19T08:09:21;15.70;99.90
27376;DHT22;14844;51.302;6.354;2023-10-19T08:12:31;15.70;99.90
27376;DHT22;14844;51.302;6.354;2023-10-19T08:15:18;15.70;99.90
27376;DHT22;14844;51.302;6.354;2023-10-19T08:18:15;15.80;99.90
27376;DHT22;14844;51.302;6.354;2023-10-19T08:20:44;15.80;99.90
27376;DHT22;14844;51.302;6.354;2023-10-19T08:23:14;15.90;99.90
27376;DHT22;14844;51.302;6.354;2023-10-19T08:25:42;16.00;99.90
27376;DHT22;14844;51.302;6.354;2023-10-19T08:28:10;16.00;99.90
27376;DHT22;14844;51.302;6.354;2023-10-19T08:30:42;16.10;99.90
27376;DHT22;14844;51.302;6.354;2023-10-19T08:33:10;16.20;99.90
27376;DHT22;14844;51.302;6.354;2023-10-19T08:35:39;16.20;99.90
27376;DHT22;14844;51.302;6.354;2023-10-19T08:38:04;16.30;99.90
27376;DHT22;14844;51.302;6.354;2023-10-19T08:40:36;16.40;99.90
27376;DHT22;14844;51.302;6.354;2023-10-19T08:43:02;16.50;99.90
27376;DHT22;14844;51.302;6.354;2023-10-19T08:45:30;16.60;99.90
27376;DHT22;14844;51.302;6.354;2023-10-19T08:48:01;16.80;99.90
27376;DHT22;14844;51.302;6.354;2023-10-19T08:50:33;17.00;99.90
27376;DHT22;14844;51.302;6.354;2023-10-19T08:53:02;17.20;99.90
27376;DHT22;14844;51.302;6.354;2023-10-19T08:55:29;17.50;99.90
27376;DHT22;14844;51.302;6.354;2023-10-19T08:57:55;17.90;99.90
27376;DHT22;14844;51.302;6.354;2023-10-19T09:00:24;18.50;99.90
27376;DHT22;14844;51.302;6.354;2023-10-19T09:02:53;18.90;99.90
27376;DHT22;14844;51.302;6.354;2023-10-19T09:05:22;19.20;99.90
27376;DHT22;14844;51.302;6.354;2023-10-19T09:07:52;19.30;99.90
27376;DHT22;14844;51.302;6.354;2023-10-19T09:10:22;19.40;99.90
27376;DHT22;14844;51.302;6.354;2023-10-19T09:13:06;19.40;99.90
27376;DHT22;14844;51.302;6.354;2023-10-19T09:15:39;19.40;99.90
27376;DHT22;14844;51.302;6.354;2023-10-19T09:18:16;19.40;99.90
27376;DHT22;14844;51.302;6.354;2023-10-19T09:20:43;19.50;99.90
27376;DHT22;14844;51.302;6.354;2023-10-19T09:23:23;19.60;99.90
27376;DHT22;14844;51.302;6.354;2023-10-19T09:25:50;19.60;99.90
27376;DHT22;14844;51.302;6.354;2023-10-19T09:28:18;19.80;99.90
27376;DHT22;14844;51.302;6.354;2023-10-19T09:30:44;19.80;99.90
27376;DHT22;14844;51.302;6.354;2023-10-19T09:33:10;19.90;99.90
27376;DHT22;14844;51.302;6.354;2023-10-19T09:35:36;20.00;99.90
27376;DHT22;14844;51.302;6.354;2023-10-19T09:38:04;20.00;99.90
27376;DHT22;14844;51.302;6.354;2023-10-19T09:40:32;19.90;99.90
27376;DHT22;14844;51.302;6.354;2023-10-19T09:43:04;19.80;99.90
27376;DHT22;14844;51.302;6.354;2023-10-19T09:45:37;19.80;99.90
27376;DHT22;14844;51.302;6.354;2023-10-19T09:48:07;19.90;99.90
27376;DHT22;14844;51.302;6.354;2023-10-19T09:50:34;20.30;99.90
27376;DHT22;14844;51.302;6.354;2023-10-19T09:53:01;20.60;99.90
27376;DHT22;14844;51.302;6.354;2023-10-19T09:55:33;20.80;99.90
27376;DHT22;14844;51.302;6.354;2023-10-19T09:58:02;21.00;99.90
27376;DHT22;14844;51.302;6.354;2023-10-19T10:00:29;21.30;99.90
27376;DHT22;14844;51.302;6.354;2023-10-19T10:02:59;21.40;99.90
27376;DHT22;14844;51.302;6.354;2023-10-19T10:10:51;21.70;99.90
27376;DHT22;14844;51.302;6.354;2023-10-19T10:15:56;21.50;99.90
27376;DHT22;14844;51.302;6.354;2023-10-19T10:18:31;21.50;99.90
27376;DHT22;14844;51.302;6.354;2023-10-19T10:21:13;21.30;99.90
27376;DHT22;14844;51.302;6.354;2023-10-19T10:23:46;21.40;99.90
27376;DHT22;14844;51.302;6.354;2023-10-19T10:26:17;21.40;99.90
27376;DHT22;14844;51.302;6.354;2023-10-19T10:28:48;21.50;99.90
27376;DHT22;14844;51.302;6.354;2023-10-19T10:31:20;21.50;99.90
27376;DHT22;14844;51.302;6.354;2023-10-19T10:33:51;21.60;99.90
27376;DHT22;14844;51.302;6.354;2023-10-19T10:36:18;21.70;99.90
27376;DHT22;14844;51.302;6.354;2023-10-19T10:38:46;21.90;99.90
27376;DHT22;14844;51.302;6.354;2023-10-19T10:41:12;22.20;99.90
27376;DHT22;14844;51.302;6.354;2023-10-19T10:43:54;22.60;99.90
27376;DHT22;14844;51.302;6.354;2023-10-19T10:46:24;22.90;99.90
27376;DHT22;14844;51.302;6.354;2023-10-19T10:48:51;23.10;99.90
27376;DHT22;14844;51.302;6.354;2023-10-19T10:51:27;23.40;99.90
27376;DHT22;14844;51.302;6.354;2023-10-19T10:53:54;23.50;99.90
27376;DHT22;14844;51.302;6.354;2023-10-19T10:56:22;23.60;99.90
27376;DHT22;14844;51.302;6.354;2023-10-19T10:58:48;23.60;99.90
27376;DHT22;14844;51.302;6.354;2023-10-19T11:01:15;23.50;99.90
27376;DHT22;14844;51.302;6.354;2023-10-19T11:03:41;23.40;99.90
27376;DHT22;14844;51.302;6.354;2023-10-19T11:06:12;23.30;99.90
27376;DHT22;14844;51.302;6.354;2023-10-19T11:08:38;23.10;99.90
27376;DHT22;14844;51.302;6.354;2023-10-19T11:11:07;22.60;99.90
27376;DHT22;14844;51.302;6.354;2023-10-19T11:13:37;22.20;99.90
27376;DHT22;14844;51.302;6.354;2023-10-19T11:16:05;22.20;99.90
27376;DHT22;14844;51.302;6.354;2023-10-19T11:18:38;21.90;99.90
27376;DHT22;14844;51.302;6.354;2023-10-19T11:21:15;21.60;99.90
27376;DHT22;14844;51.302;6.354;2023-10-19T11:23:48;21.70;99.90
27376;DHT22;14844;51.302;6.354;2023-10-19T11:26:16;21.50;99.90
27376;DHT22;14844;51.302;6.354;2023-10-19T11:28:42;21.40;99.90
27376;DHT22;14844;51.302;6.354;2023-10-19T11:31:18;21.20;99.90
27376;DHT22;14844;51.302;6.354;2023-10-19T11:33:45;21.10;99.90
27376;DHT22;14844;51.302;6.354;2023-10-19T11:36:12;21.10;99.90
27376;DHT22;14844;51.302;6.354;2023-10-19T11:38:42;21.20;99.90
27376;DHT22;14844;51.302;6.354;2023-10-19T11:41:08;21.30;99.90
27376;DHT22;14844;51.302;6.354;2023-10-19T11:43:35;21.40;99.90
27376;DHT22;14844;51.302;6.354;2023-10-19T11:46:01;21.40;99.90
27376;DHT22;14844;51.302;6.354;2023-10-19T11:48:26;21.40;99.90
27376;DHT22;14844;51.302;6.354;2023-10-19T11:50:52;21.40;99.90
27376;DHT22;14844;51.302;6.354;2023-10-19T11:53:19;21.30;99.90
27376;DHT22;14844;51.302;6.354;2023-10-19T11:55:45;21.20;99.90
27376;DHT22;14844;51.302;6.354;2023-10-19T11:58:14;21.10;99.90
27376;DHT22;14844;51.302;6.354;2023-10-19T12:00:40;21.00;99.90
27376;DHT22;14844;51.302;6.354;2023-10-19T12:03:12;20.90;99.90
27376;DHT22;14844;51.302;6.354;2023-10-19T12:05:38;20.90;99.90
27376;DHT22;14844;51.302;6.354;2023-10-19T12:08:04;20.90;99.90
27376;DHT22;14844;51.302;6.354;2023-10-19T12:10:29;20.90;99.90
27376;DHT22;14844;51.302;6.354;2023-10-19T12:13:02;20.90;99.90
27376;DHT22;14844;51.302;6.354;2023-10-19T12:15:27;20.90;99.90
27376;DHT22;14844;51.302;6.354;2023-10-19T12:17:53;21.00;99.90
27376;DHT22;14844;51.302;6.354;2023-10-19T12:20:19;21.00;99.90
27376;DHT22;14844;51.302;6.354;2023-10-19T12:22:47;20.90;99.90
27376;DHT22;14844;51.302;6.354;2023-10-19T12:25:13;20.70;99.90
27376;DHT22;14844;51.302;6.354;2023-10-19T12:27:40;20.60;99.90
27376;DHT22;14844;51.302;6.354;2023-10-19T12:30:06;20.60;99.90
27376;DHT22;14844;51.302;6.354;2023-10-19T12:32:42;20.50;99.90
27376;DHT22;14844;51.302;6.354;2023-10-19T12:35:08;20.40;99.90
27376;DHT22;14844;51.302;6.354;2023-10-19T12:37:37;20.40;99.90
27376;DHT22;14844;51.302;6.354;2023-10-19T12:40:14;20.40;99.90
27376;DHT22;14844;51.302;6.354;2023-10-19T12:42:53;20.30;99.90
27376;DHT22;14844;51.302;6.354;2023-10-19T12:45:27;20.20;99.90
27376;DHT22;14844;51.302;6.354;2023-10-19T12:47:52;20.10;99.90
27376;DHT22;14844;51.302;6.354;2023-10-19T12:50:21;20.00;99.90
27376;DHT22;14844;51.302;6.354;2023-10-19T12:52:50;19.90;99.90
27376;DHT22;14844;51.302;6.354;2023-10-19T12:55:18;19.90;99.90
27376;DHT22;14844;51.302;6.354;2023-10-19T12:57:44;19.80;99.90
27376;DHT22;14844;51.302;6.354;2023-10-19T13:00:10;19.80;99.90
27376;DHT22;14844;51.302;6.354;2023-10-19T13:02:55;19.70;99.90
27376;DHT22;14844;51.302;6.354;2023-10-19T13:05:27;19.70;99.90
27376;DHT22;14844;51.302;6.354;2023-10-19T13:07:54;19.70;99.90
27376;DHT22;14844;51.302;6.354;2023-10-19T13:10:27;19.70;99.90
27376;DHT22;14844;51.302;6.354;2023-10-19T13:12:53;19.70;99.90
27376;DHT22;14844;51.302;6.354;2023-10-19T13:15:19;19.70;99.90
27376;DHT22;14844;51.302;6.354;2023-10-19T13:17:47;19.70;99.90
27376;DHT22;14844;51.302;6.354;2023-10-19T13:20:13;19.70;99.90
27376;DHT22;14844;51.302;6.354;2023-10-19T13:22:43;19.60;99.90
27376;DHT22;14844;51.302;6.354;2023-10-19T13:25:10;19.50;99.90
27376;DHT22;14844;51.302;6.354;2023-10-19T13:27:41;19.50;99.90
27376;DHT22;14844;51.302;6.354;2023-10-19T13:30:08;19.40;99.90
27376;DHT22;14844;51.302;6.354;2023-10-19T13:32:36;19.30;99.90
27376;DHT22;14844;51.302;6.354;2023-10-19T13:35:02;19.30;99.90
27376;DHT22;14844;51.302;6.354;2023-10-19T13:37:27;19.30;99.90
27376;DHT22;14844;51.302;6.354;2023-10-19T13:39:53;19.30;99.90
27376;DHT22;14844;51.302;6.354;2023-10-19T13:42:20;19.40;99.90
27376;DHT22;14844;51.302;6.354;2023-10-19T13:44:47;19.40;99.90
27376;DHT22;14844;51.302;6.354;2023-10-19T13:47:13;19.40;99.90
27376;DHT22;14844;51.302;6.354;2023-10-19T13:49:38;19.40;99.90
27376;DHT22;14844;51.302;6.354;2023-10-19T13:52:04;19.30;99.90
27376;DHT22;14844;51.302;6.354;2023-10-19T13:54:30;19.30;99.90
27376;DHT22;14844;51.302;6.354;2023-10-19T13:56:56;19.30;99.90
27376;DHT22;14844;51.302;6.354;2023-10-19T13:59:21;19.30;99.90
27376;DHT22;14844;51.302;6.354;2023-10-19T14:01:49;19.20;99.90
27376;DHT22;14844;51.302;6.354;2023-10-19T14:04:15;19.20;99.90
27376;DHT22;14844;51.302;6.354;2023-10-19T14:06:41;19.20;99.90
27376;DHT22;14844;51.302;6.354;2023-10-19T14:09:08;19.20;99.90
27376;DHT22;14844;51.302;6.354;2023-10-19T14:11:38;19.10;99.90
27376;DHT22;14844;51.302;6.354;2023-10-19T14:14:03;19.10;99.90
27376;DHT22;14844;51.302;6.354;2023-10-19T14:16:30;19.00;99.90
27376;DHT22;14844;51.302;6.354;2023-10-19T14:18:56;18.90;99.90
27376;DHT22;14844;51.302;6.354;2023-10-19T14:21:22;18.80;99.90
27376;DHT22;14844;51.302;6.354;2023-10-19T14:23:52;18.70;99.90
27376;DHT22;14844;51.302;6.354;2023-10-19T14:26:18;18.70;99.90
27376;DHT22;14844;51.302;6.354;2023-10-19T14:28:44;18.60;99.90
27376;DHT22;14844;51.302;6.354;2023-10-19T14:31:10;18.50;99.90
27376;DHT22;14844;51.302;6.354;2023-10-19T14:33:37;18.50;99.90
27376;DHT22;14844;51.302;6.354;2023-10-19T14:36:06;18.50;99.90
27376;DHT22;14844;51.302;6.354;2023-10-19T14:38:33;18.50;99.90
27376;DHT22;14844;51.302;6.354;2023-10-19T14:40:58;18.40;99.90
27376;DHT22;14844;51.302;6.354;2023-10-19T14:43:24;18.40;99.90
27376;DHT22;14844;51.302;6.354;2023-10-19T14:45:54;18.40;99.90
27376;DHT22;14844;51.302;6.354;2023-10-19T14:48:22;18.30;99.90
27376;DHT22;14844;51.302;6.354;2023-10-19T14:50:49;18.30;99.90
27376;DHT22;14844;51.302;6.354;2023-10-19T14:53:17;18.30;99.90
27376;DHT22;14844;51.302;6.354;2023-10-19T14:55:45;18.30;99.90
27376;DHT22;14844;51.302;6.354;2023-10-19T14:58:11;18.30;99.90
27376;DHT22;14844;51.302;6.354;2023-10-19T15:00:37;18.20;99.90
27376;DHT22;14844;51.302;6.354;2023-10-19T15:03:07;18.10;99.90
27376;DHT22;14844;51.302;6.354;2023-10-19T15:05:34;18.10;99.90
27376;DHT22;14844;51.302;6.354;2023-10-19T15:08:01;18.00;99.90
27376;DHT22;14844;51.302;6.354;2023-10-19T15:10:27;18.10;99.90
27376;DHT22;14844;51.302;6.354;2023-10-19T15:12:54;18.10;99.90
27376;DHT22;14844;51.302;6.354;2023-10-19T15:15:22;18.20;99.90
27376;DHT22;14844;51.302;6.354;2023-10-19T15:17:48;18.30;99.90
27376;DHT22;14844;51.302;6.354;2023-10-19T15:20:16;18.40;99.90
27376;DHT22;14844;51.302;6.354;2023-10-19T15:22:42;18.40;99.90
27376;DHT22;14844;51.302;6.354;2023-10-19T15:25:09;18.30;99.90
27376;DHT22;14844;51.302;6.354;2023-10-19T15:27:39;18.30;99.90
27376;DHT22;14844;51.302;6.354;2023-10-19T15:30:06;18.20;99.90
27376;DHT22;14844;51.302;6.354;2023-10-19T15:32:34;18.20;99.90
27376;DHT22;14844;51.302;6.354;2023-10-19T15:35:00;18.10;99.90
27376;DHT22;14844;51.302;6.354;2023-10-19T15:37:26;18.00;99.90
27376;DHT22;14844;51.302;6.354;2023-10-19T15:39:52;18.00;99.90
27376;DHT22;14844;51.302;6.354;2023-10-19T15:42:18;17.90;99.90
27376;DHT22;14844;51.302;6.354;2023-10-19T15:44:45;17.90;99.90
27376;DHT22;14844;51.302;6.354;2023-10-19T15:47:13;17.80;99.90
27376;DHT22;14844;51.302;6.354;2023-10-19T15:49:47;17.90;99.90
27376;DHT22;14844;51.302;6.354;2023-10-19T15:52:20;18.00;99.90
27376;DHT22;14844;51.302;6.354;2023-10-19T15:54:46;18.10;99.90
27376;DHT22;14844;51.302;6.354;2023-10-19T15:57:12;18.00;99.90
27376;DHT22;14844;51.302;6.354;2023-10-19T15:59:38;18.10;99.90
27376;DHT22;14844;51.302;6.354;2023-10-19T16:02:04;18.20;99.90
27376;DHT22;14844;51.302;6.354;2023-10-19T16:04:30;18.20;99.90
27376;DHT22;14844;51.302;6.354;2023-10-19T16:06:55;18.20;99.90
27376;DHT22;14844;51.302;6.354;2023-10-19T16:09:21;18.10;99.90
27376;DHT22;14844;51.302;6.354;2023-10-19T16:11:47;17.90;99.90
27376;DHT22;14844;51.302;6.354;2023-10-19T16:14:17;17.70;99.90
27376;DHT22;14844;51.302;6.354;2023-10-19T16:16:48;17.40;99.90
27376;DHT22;14844;51.302;6.354;2023-10-19T16:19:14;17.30;99.90
27376;DHT22;14844;51.302;6.354;2023-10-19T16:21:39;17.00;99.90
27376;DHT22;14844;51.302;6.354;2023-10-19T16:24:07;16.90;99.90
27376;DHT22;14844;51.302;6.354;2023-10-19T16:26:33;16.70;99.90
27376;DHT22;14844;51.302;6.354;2023-10-19T16:28:58;16.60;99.90
27376;DHT22;14844;51.302;6.354;2023-10-19T16:31:24;16.50;99.90
27376;DHT22;14844;51.302;6.354;2023-10-19T16:33:49;16.30;99.90
27376;DHT22;14844;51.302;6.354;2023-10-19T16:36:15;16.30;99.90
27376;DHT22;14844;51.302;6.354;2023-10-19T16:38:41;16.20;99.90
27376;DHT22;14844;51.302;6.354;2023-10-19T16:41:06;16.10;99.90
27376;DHT22;14844;51.302;6.354;2023-10-19T16:43:32;16.00;99.90
27376;DHT22;14844;51.302;6.354;2023-10-19T16:45:58;15.90;99.90
27376;DHT22;14844;51.302;6.354;2023-10-19T16:48:25;15.90;99.90
27376;DHT22;14844;51.302;6.354;2023-10-19T16:50:50;15.80;99.90
27376;DHT22;14844;51.302;6.354;2023-10-19T16:53:16;15.80;99.90
27376;DHT22;14844;51.302;6.354;2023-10-19T16:55:45;15.70;99.90
27376;DHT22;14844;51.302;6.354;2023-10-19T16:58:10;15.60;99.90
27376;DHT22;14844;51.302;6.354;2023-10-19T17:00:36;15.50;99.90
27376;DHT22;14844;51.302;6.354;2023-10-19T17:03:06;15.50;99.90
27376;DHT22;14844;51.302;6.354;2023-10-19T17:05:32;15.40;99.90
27376;DHT22;14844;51.302;6.354;2023-10-19T17:07:58;15.40;99.90
27376;DHT22;14844;51.302;6.354;2023-10-19T17:10:23;15.40;99.90
27376;DHT22;14844;51.302;6.354;2023-10-19T17:12:49;15.30;99.90
27376;DHT22;14844;51.302;6.354;2023-10-19T17:15:15;15.30;99.90
27376;DHT22;14844;51.302;6.354;2023-10-19T17:17:41;15.30;99.90
27376;DHT22;14844;51.302;6.354;2023-10-19T17:20:07;15.20;99.90
27376;DHT22;14844;51.302;6.354;2023-10-19T17:22:34;15.10;99.90
27376;DHT22;14844;51.302;6.354;2023-10-19T17:25:00;15.00;99.90
27376;DHT22;14844;51.302;6.354;2023-10-19T17:27:25;15.00;99.90
27376;DHT22;14844;51.302;6.354;2023-10-19T17:29:51;15.00;99.90
27376;DHT22;14844;51.302;6.354;2023-10-19T17:32:17;14.90;99.90
27376;DHT22;14844;51.302;6.354;2023-10-19T17:34:43;14.80;99.90
27376;DHT22;14844;51.302;6.354;2023-10-19T17:37:09;14.80;99.90
27376;DHT22;14844;51.302;6.354;2023-10-19T17:39:36;14.80;99.90
27376;DHT22;14844;51.302;6.354;2023-10-19T17:42:01;14.80;99.90
27376;DHT22;14844;51.302;6.354;2023-10-19T17:44:27;14.80;99.90
27376;DHT22;14844;51.302;6.354;2023-10-19T17:46:53;14.70;99.90
27376;DHT22;14844;51.302;6.354;2023-10-19T17:49:19;14.70;99.90
27376;DHT22;14844;51.302;6.354;2023-10-19T17:51:45;14.70;99.90
27376;DHT22;14844;51.302;6.354;2023-10-19T17:54:10;14.70;99.90
27376;DHT22;14844;51.302;6.354;2023-10-19T17:56:37;14.70;99.90
27376;DHT22;14844;51.302;6.354;2023-10-19T17:59:03;14.70;99.90
27376;DHT22;14844;51.302;6.354;2023-10-19T18:01:29;14.70;99.90
27376;DHT22;14844;51.302;6.354;2023-10-19T18:03:58;14.70;99.90
27376;DHT22;14844;51.302;6.354;2023-10-19T18:06:23;14.70;99.90
27376;DHT22;14844;51.302;6.354;2023-10-19T18:08:50;14.70;99.90
27376;DHT22;14844;51.302;6.354;2023-10-19T18:11:16;14.70;99.90
27376;DHT22;14844;51.302;6.354;2023-10-19T18:13:43;14.70;99.90
27376;DHT22;14844;51.302;6.354;2023-10-19T18:16:09;14.60;99.90
27376;DHT22;14844;51.302;6.354;2023-10-19T18:18:38;14.60;99.90
27376;DHT22;14844;51.302;6.354;2023-10-19T18:21:15;14.60;99.90
27376;DHT22;14844;51.302;6.354;2023-10-19T18:23:44;14.60;99.90
27376;DHT22;14844;51.302;6.354;2023-10-19T18:26:12;14.60;99.90
27376;DHT22;14844;51.302;6.354;2023-10-19T18:28:38;14.50;99.90
27376;DHT22;14844;51.302;6.354;2023-10-19T18:31:07;14.50;99.90
27376;DHT22;14844;51.302;6.354;2023-10-19T18:33:33;14.50;99.90
27376;DHT22;14844;51.302;6.354;2023-10-19T18:36:03;14.50;99.90
27376;DHT22;14844;51.302;6.354;2023-10-19T18:38:32;14.50;99.90
27376;DHT22;14844;51.302;6.354;2023-10-19T18:41:01;14.50;99.90
27376;DHT22;14844;51.302;6.354;2023-10-19T18:43:27;14.50;99.90
27376;DHT22;14844;51.302;6.354;2023-10-19T18:45:56;14.50;99.90
27376;DHT22;14844;51.302;6.354;2023-10-19T18:48:22;14.50;99.90
27376;DHT22;14844;51.302;6.354;2023-10-19T18:51:00;14.50;99.90
27376;DHT22;14844;51.302;6.354;2023-10-19T18:53:27;14.40;99.90
27376;DHT22;14844;51.302;6.354;2023-10-19T18:55:53;14.40;99.90
27376;DHT22;14844;51.302;6.354;2023-10-19T18:58:19;14.40;99.90
27376;DHT22;14844;51.302;6.354;2023-10-19T19:01:06;14.50;99.90
27376;DHT22;14844;51.302;6.354;2023-10-19T19:03:33;14.40;99.90
27376;DHT22;14844;51.302;6.354;2023-10-19T19:06:01;14.40;99.90
27376;DHT22;14844;51.302;6.354;2023-10-19T19:08:30;14.40;99.90
27376;DHT22;14844;51.302;6.354;2023-10-19T19:10:57;14.30;99.90
27376;DHT22;14844;51.302;6.354;2023-10-19T19:13:23;14.30;99.90
27376;DHT22;14844;51.302;6.354;2023-10-19T19:15:49;14.30;99.90
27376;DHT22;14844;51.302;6.354;2023-10-19T19:18:19;14.30;99.90
27376;DHT22;14844;51.302;6.354;2023-10-19T19:20:45;14.20;99.90
27376;DHT22;14844;51.302;6.354;2023-10-19T19:23:12;14.20;99.90
27376;DHT22;14844;51.302;6.354;2023-10-19T19:25:38;14.20;99.90
27376;DHT22;14844;51.302;6.354;2023-10-19T19:28:05;14.20;99.90
27376;DHT22;14844;51.302;6.354;2023-10-19T19:30:30;14.10;99.90
27376;DHT22;14844;51.302;6.354;2023-10-19T19:32:56;14.20;99.90
27376;DHT22;14844;51.302;6.354;2023-10-19T19:35:22;14.20;99.90
27376;DHT22;14844;51.302;6.354;2023-10-19T19:37:48;14.20;99.90
27376;DHT22;14844;51.302;6.354;2023-10-19T19:40:13;14.30;99.90
27376;DHT22;14844;51.302;6.354;2023-10-19T19:42:40;14.30;99.90
27376;DHT22;14844;51.302;6.354;2023-10-19T19:45:10;14.30;99.90
27376;DHT22;14844;51.302;6.354;2023-10-19T19:47:40;14.30;99.90
27376;DHT22;14844;51.302;6.354;2023-10-19T19:50:06;14.30;99.90
27376;DHT22;14844;51.302;6.354;2023-10-19T19:52:34;14.30;99.90
27376;DHT22;14844;51.302;6.354;2023-10-19T19:55:06;14.40;99.90
27376;DHT22;14844;51.302;6.354;2023-10-19T19:57:33;14.40;99.90
27376;DHT22;14844;51.302;6.354;2023-10-19T19:59:59;14.40;99.90
27376;DHT22;14844;51.302;6.354;2023-10-19T20:02:25;14.50;99.90
27376;DHT22;14844;51.302;6.354;2023-10-19T20:04:54;14.50;99.90
27376;DHT22;14844;51.302;6.354;2023-10-19T20:07:19;14.50;99.90
27376;DHT22;14844;51.302;6.354;2023-10-19T20:09:45;14.50;99.90
27376;DHT22;14844;51.302;6.354;2023-10-19T20:12:10;14.50;99.90
27376;DHT22;14844;51.302;6.354;2023-10-19T20:14:37;14.50;99.90
27376;DHT22;14844;51.302;6.354;2023-10-19T20:17:03;14.50;99.90
27376;DHT22;14844;51.302;6.354;2023-10-19T20:19:29;14.50;99.90
27376;DHT22;14844;51.302;6.354;2023-10-19T20:21:54;14.50;99.90
27376;DHT22;14844;51.302;6.354;2023-10-19T20:24:20;14.50;99.90
27376;DHT22;14844;51.302;6.354;2023-10-19T20:26:45;14.50;99.90
27376;DHT22;14844;51.302;6.354;2023-10-19T20:29:11;14.50;99.90
27376;DHT22;14844;51.302;6.354;2023-10-19T20:31:38;14.50;99.90
27376;DHT22;14844;51.302;6.354;2023-10-19T20:34:04;14.60;99.90
27376;DHT22;14844;51.302;6.354;2023-10-19T20:36:29;14.50;99.90
27376;DHT22;14844;51.302;6.354;2023-10-19T20:38:55;14.50;99.90
27376;DHT22;14844;51.302;6.354;2023-10-19T20:41:21;14.50;99.90
27376;DHT22;14844;51.302;6.354;2023-10-19T20:43:47;14.50;99.90